Time;durP1;ratioP1;P1;durP2;ratioP2;P2;SDS_P1;SDS_P2;PMS_P1;PMS_P2;Temp;Humidity;BMP_temperature;BMP_pressure;BME280_temperature;BME280_humidity;BME280_pressure;Samples;Min_cycle;Max_cycle;Signal;HPM_P1;HPM_P2
2021/09/01 00:00:27;;;;;;;12.27;6.72;;;;;;;11.17;54.75;96473.81;5007218;28;20041;-63
2021/09/01 00:02:54;;;;;;;10.25;6.40;;;;;;;11.18;54.45;96470.13;5002024;28;20037;-63
2021/09/01 00:05:20;;;;;;;14.25;5.70;;;;;;;11.50;52.92;96468.56;5006774;28;20041;-63
2021/09/01 00:07:47;;;;;;;10.13;5.97;;;;;;;11.54;52.73;96465.56;5007775;28;20103;-63
2021/09/01 00:10:13;;;;;;;11.60;6.32;;;;;;;11.49;52.42;96466.09;5007307;28;20467;-63
2021/09/01 00:12:38;;;;;;;11.88;6.35;;;;;;;11.36;53.74;96461.22;5007628;28;20068;-63
2021/09/01 00:15:04;;;;;;;13.10;6.28;;;;;;;11.28;53.64;96456.69;5007313;28;20038;-63
2021/09/01 00:17:30;;;;;;;11.20;5.95;;;;;;;11.22;53.41;96457.34;4987410;28;20034;-63
2021/09/01 00:19:55;;;;;;;10.15;5.53;;;;;;;11.26;52.78;96456.84;5007764;28;20029;-63
2021/09/01 00:22:21;;;;;;;10.68;5.43;;;;;;;11.30;52.06;96460.03;5007215;28;20395;-63
2021/09/01 00:24:46;;;;;;;7.13;5.13;;;;;;;11.33;52.08;96456.19;5006641;28;20112;-63
2021/09/01 00:27:13;;;;;;;9.45;6.55;;;;;;;11.00;52.92;96467.53;5007429;28;20091;-63
2021/09/01 00:29:39;;;;;;;10.98;6.03;;;;;;;10.81;54.51;96463.31;5010530;28;20087;-63
2021/09/01 00:32:04;;;;;;;10.85;6.60;;;;;;;10.78;54.59;96469.75;5012141;28;20465;-63
2021/09/01 00:34:30;;;;;;;14.20;6.70;;;;;;;10.78;53.54;96467.09;5011228;28;20553;-64
2021/09/01 00:36:55;;;;;;;8.68;5.85;;;;;;;10.77;54.20;96472.59;5011432;28;20029;-64
2021/09/01 00:39:21;;;;;;;9.93;6.00;;;;;;;10.84;53.98;96468.28;5011332;28;20034;-64
2021/09/01 00:41:46;;;;;;;11.05;6.38;;;;;;;10.85;53.37;96462.81;5010242;28;20030;-63
2021/09/01 00:44:24;;;;;;;9.82;6.15;;;;;;;10.64;53.60;96457.06;5011368;28;20029;-63
2021/09/01 00:46:52;;;;;;;12.52;6.60;;;;;;;10.71;54.20;96458.91;5010893;28;20121;-63
2021/09/01 00:49:18;;;;;;;8.50;6.00;;;;;;;10.74;54.03;96460.41;5011162;28;20057;-63
2021/09/01 00:51:45;;;;;;;13.02;6.07;;;;;;;10.72;53.78;96462.41;5011507;28;20564;-63
2021/09/01 00:54:11;;;;;;;11.15;5.97;;;;;;;10.74;53.10;96463.06;5009663;28;20080;-64
2021/09/01 00:56:36;;;;;;;11.60;6.20;;;;;;;10.72;53.84;96465.91;4993565;28;20777;-64
2021/09/01 00:59:01;;;;;;;10.43;6.00;;;;;;;10.73;53.55;96464.06;5010690;28;20121;-63
2021/09/01 01:01:27;;;;;;;9.98;5.78;;;;;;;10.70;53.23;96461.72;5009642;28;20038;-63
2021/09/01 01:03:53;;;;;;;10.25;6.00;;;;;;;10.71;53.43;96466.91;5011441;28;20038;-63
2021/09/01 01:06:26;;;;;;;14.77;6.22;;;;;;;10.55;53.45;96459.66;5010634;28;20133;-63
2021/09/01 01:08:54;;;;;;;10.45;5.75;;;;;;;10.64;53.98;96457.06;5010990;28;20084;-63
2021/09/01 01:11:20;;;;;;;9.75;5.20;;;;;;;10.68;53.25;96463.72;5011065;28;20030;-63
2021/09/01 01:13:46;;;;;;;11.10;6.00;;;;;;;10.67;53.64;96462.88;5010687;28;20483;-63
2021/09/01 01:16:12;;;;;;;12.75;6.00;;;;;;;10.70;53.69;96461.72;5011979;28;20084;-63
2021/09/01 01:18:38;;;;;;;14.93;6.90;;;;;;;10.55;55.22;96472.97;5010480;28;20156;-63
2021/09/01 01:21:03;;;;;;;11.00;6.05;;;;;;;10.69;54.76;96468.06;5010435;28;20445;-63
2021/09/01 01:23:29;;;;;;;11.02;6.72;;;;;;;10.73;54.15;96472.91;5010660;28;20045;-63
2021/09/01 01:25:54;;;;;;;9.43;6.32;;;;;;;10.69;54.71;96474.22;5010432;28;20048;-63
2021/09/01 01:28:19;;;;;;;10.23;6.97;;;;;;;10.45;56.17;96466.91;5010636;28;20037;-63
2021/09/01 01:30:45;;;;;;;14.32;6.45;;;;;;;10.64;55.25;96473.03;5010659;28;20037;-63
2021/09/01 01:33:11;;;;;;;12.48;6.80;;;;;;;10.75;54.91;96476.25;5011257;28;20034;-63
2021/09/01 01:35:38;;;;;;;9.20;6.13;;;;;;;10.82;54.56;96476.47;5010133;28;20052;-64
2021/09/01 01:38:09;;;;;;;12.13;6.32;;;;;;;10.85;53.88;96481.44;5010350;28;20758;-63
2021/09/01 01:40:35;;;;;;;11.98;5.80;;;;;;;10.89;53.58;96481.97;5009694;28;20099;-63
2021/09/01 01:43:00;;;;;;;9.93;5.97;;;;;;;10.87;53.54;96478.63;5010038;28;20042;-63
2021/09/01 01:45:35;;;;;;;8.77;5.65;;;;;;;10.82;53.52;96475.63;5010277;28;20033;-63
2021/09/01 01:48:01;;;;;;;8.25;6.00;;;;;;;10.83;53.61;96480.78;5010169;28;20094;-63
2021/09/01 01:50:27;;;;;;;7.45;5.25;;;;;;;10.77;53.08;96480.59;5009864;28;20487;-63
2021/09/01 01:52:53;;;;;;;9.63;5.15;;;;;;;10.74;52.65;96484.38;5009194;28;20058;-63
2021/09/01 01:55:18;;;;;;;9.38;5.82;;;;;;;10.67;52.92;96478.84;5010215;28;20049;-63
2021/09/01 01:57:44;;;;;;;6.82;4.70;;;;;;;10.61;52.68;96484.84;5009690;28;20037;-63
2021/09/01 02:00:10;;;;;;;9.82;5.55;;;;;;;10.57;53.00;96484.28;5010376;28;20660;-64
2021/09/01 02:02:35;;;;;;;8.95;5.30;;;;;;;10.52;53.11;96489.25;5006782;28;20041;-63
2021/09/01 02:05:01;;;;;;;16.42;5.43;;;;;;;10.46;52.90;96485.41;5010437;28;20050;-64
2021/09/01 02:07:27;;;;;;;8.45;5.22;;;;;;;10.43;53.56;96482.19;5009492;28;20137;-63
2021/09/01 02:09:52;;;;;;;11.07;5.50;;;;;;;10.53;53.37;96482.94;5009834;28;20495;-63
2021/09/01 02:12:17;;;;;;;9.88;6.20;;;;;;;10.54;53.77;96479.28;5009638;28;20050;-64
2021/09/01 02:14:43;;;;;;;14.00;6.43;;;;;;;10.64;53.98;96479.16;5009470;28;20438;-63
2021/09/01 02:17:09;;;;;;;9.45;6.20;;;;;;;10.79;53.98;96479.44;5009718;28;20033;-63
2021/09/01 02:19:34;;;;;;;10.43;5.90;;;;;;;10.90;53.51;96482.81;5009683;28;20121;-63
2021/09/01 02:21:59;;;;;;;9.82;6.30;;;;;;;10.94;54.12;96484.16;5009320;28;20121;-63
2021/09/01 02:24:25;;;;;;;13.73;6.22;;;;;;;11.04;54.45;96484.88;5010002;28;20032;-64
2021/09/01 02:26:50;;;;;;;11.02;6.18;;;;;;;11.24;53.69;96482.84;5008797;28;20038;-63
2021/09/01 02:29:16;;;;;;;12.05;6.38;;;;;;;11.39;53.97;96483.03;5008110;28;20029;-63
2021/09/01 02:31:41;;;;;;;38.90;8.15;;;;;;;11.26;55.02;96482.69;5009781;28;20364;-64
2021/09/01 02:34:06;;;;;;;14.40;6.78;;;;;;;11.54;53.88;96481.56;5009059;28;20038;-63
2021/09/01 02:36:32;;;;;;;12.35;7.47;;;;;;;11.26;54.89;96480.81;5009617;28;20029;-64
2021/09/01 02:38:57;;;;;;;15.70;8.07;;;;;;;11.26;55.64;96486.16;5008491;28;20038;-63
2021/09/01 02:41:23;;;;;;;16.10;8.32;;;;;;;11.22;56.21;96486.66;5009358;28;20459;-63
2021/09/01 02:43:50;;;;;;;16.10;9.32;;;;;;;11.04;56.83;96489.34;5009782;28;20038;-64
2021/09/01 02:46:15;;;;;;;16.83;10.13;;;;;;;11.29;56.38;96487.66;5007236;28;20101;-63
2021/09/01 02:48:41;;;;;;;14.35;9.60;;;;;;;11.28;55.89;96480.66;5009201;28;20060;-63
2021/09/01 02:51:07;;;;;;;18.95;10.40;;;;;;;11.37;55.47;96478.88;5008777;28;20132;-63
2021/09/01 02:53:32;;;;;;;16.27;10.23;;;;;;;11.39;55.36;96485.72;5009057;28;20034;-63
2021/09/01 02:55:58;;;;;;;15.38;10.07;;;;;;;11.48;55.30;96475.91;5006442;28;20093;-63
2021/09/01 02:58:24;;;;;;;16.40;10.13;;;;;;;11.68;53.39;96474.78;5007905;28;20037;-63
2021/09/01 03:00:49;;;;;;;16.98;10.25;;;;;;;11.55;55.53;96483.22;5008387;28;20041;-63
2021/09/01 03:03:15;;;;;;;16.17;10.00;;;;;;;11.50;54.48;96489.09;5007453;28;20073;-64
2021/09/01 03:05:40;;;;;;;17.90;11.80;;;;;;;11.37;56.29;96481.53;5008682;28;20046;-63
2021/09/01 03:08:07;;;;;;;12.75;8.60;;;;;;;11.25;55.09;96494.31;5009131;28;20113;-63
2021/09/01 03:10:32;;;;;;;14.55;10.27;;;;;;;11.37;55.22;96497.53;5008507;28;20042;-63
2021/09/01 03:12:58;;;;;;;15.00;9.30;;;;;;;11.00;56.38;96500.38;5008390;28;20057;-63
2021/09/01 03:15:23;;;;;;;13.73;9.68;;;;;;;10.81;56.95;96495.25;5008738;28;20049;-63
2021/09/01 03:17:48;;;;;;;15.48;9.63;;;;;;;10.93;57.06;96499.31;5008263;28;20044;-63
2021/09/01 03:20:14;;;;;;;12.40;8.48;;;;;;;10.72;57.53;96491.72;5008878;28;20540;-64
2021/09/01 03:22:39;;;;;;;11.20;8.10;;;;;;;10.90;56.55;96485.47;5008070;28;20041;-64
2021/09/01 03:25:05;;;;;;;12.93;8.68;;;;;;;10.78;57.04;96483.06;5008657;28;20030;-64
2021/09/01 03:27:31;;;;;;;18.38;9.40;;;;;;;10.72;57.46;96483.72;5008078;28;20038;-63
2021/09/01 03:29:56;;;;;;;13.75;8.38;;;;;;;11.13;56.15;96486.59;5008038;28;20530;-63
2021/09/01 03:32:22;;;;;;;11.48;8.27;;;;;;;11.29;55.12;96482.31;5008588;28;20463;-63
2021/09/01 03:34:47;;;;;;;14.23;9.40;;;;;;;11.10;56.05;96484.28;5008032;28;20034;-64
2021/09/01 03:37:12;;;;;;;13.35;8.38;;;;;;;11.02;56.20;96492.22;5008275;28;20036;-64
2021/09/01 03:39:38;;;;;;;16.80;9.10;;;;;;;11.10;55.65;96489.63;5008016;28;20030;-64
2021/09/01 03:42:03;;;;;;;18.90;8.77;;;;;;;11.07;55.73;96495.22;5008200;28;20030;-64
2021/09/01 03:44:29;;;;;;;16.08;8.75;;;;;;;11.06;56.00;96504.22;5008448;28;20129;-64
2021/09/01 03:46:54;;;;;;;12.68;7.95;;;;;;;10.90;56.76;96498.78;5007815;28;20038;-64
2021/09/01 03:49:20;;;;;;;12.32;8.18;;;;;;;10.84;56.82;96497.59;5007775;28;20348;-64
2021/09/01 03:51:45;;;;;;;14.43;8.25;;;;;;;11.23;55.53;96493.66;5008508;28;20045;-64
2021/09/01 03:54:11;;;;;;;13.35;7.82;;;;;;;11.04;55.67;96492.88;5006374;28;20033;-64
2021/09/01 03:56:37;;;;;;;13.27;8.73;;;;;;;11.00;56.06;96504.84;5008105;28;20045;-65
2021/09/01 03:59:03;;;;;;;15.65;8.27;;;;;;;11.03;55.81;96499.19;5007582;28;20608;-65
2021/09/01 04:01:28;;;;;;;12.55;7.50;;;;;;;11.32;54.72;96505.19;5008096;28;20033;-64
2021/09/01 04:03:54;;;;;;;10.52;6.93;;;;;;;11.37;54.62;96505.53;5006801;28;20037;-64
2021/09/01 04:06:19;;;;;;;11.10;6.70;;;;;;;11.28;55.26;96501.19;5007528;28;20076;-63
2021/09/01 04:08:45;;;;;;;11.45;6.70;;;;;;;11.27;54.77;96497.66;5007633;28;20424;-64
2021/09/01 04:11:10;;;;;;;12.80;7.10;;;;;;;11.31;54.83;96500.84;5007650;28;20119;-64
2021/09/01 04:13:36;;;;;;;13.38;7.53;;;;;;;11.45;54.38;96502.88;5007441;28;20565;-63
2021/09/01 04:16:01;;;;;;;11.88;6.80;;;;;;;11.29;55.15;96505.50;5007876;28;20489;-63
2021/09/01 04:18:26;;;;;;;11.00;6.32;;;;;;;11.62;54.01;96511.78;5007008;28;20831;-63
2021/09/01 04:20:52;;;;;;;12.48;7.10;;;;;;;11.31;55.07;96515.00;5007520;28;20368;-63
2021/09/01 04:23:18;;;;;;;10.43;6.70;;;;;;;11.54;54.31;96511.75;5006851;28;20041;-63
2021/09/01 04:25:43;;;;;;;11.98;6.30;;;;;;;11.23;54.84;96515.81;5006321;28;20038;-63
2021/09/01 04:28:08;;;;;;;12.57;6.60;;;;;;;11.02;55.23;96516.19;5007245;28;20041;-64
2021/09/01 04:30:34;;;;;;;9.55;6.40;;;;;;;10.96;55.52;96514.16;5007355;28;20045;-63
2021/09/01 04:32:59;;;;;;;12.48;6.78;;;;;;;11.05;55.82;96515.03;5005979;28;20042;-64
2021/09/01 04:35:25;;;;;;;15.80;7.32;;;;;;;11.09;56.01;96517.22;5007438;28;20045;-63
2021/09/01 04:37:50;;;;;;;11.57;6.68;;;;;;;11.39;55.31;96524.84;5006620;28;20038;-63
2021/09/01 04:40:16;;;;;;;13.60;6.97;;;;;;;11.24;55.27;96527.31;5007491;28;20034;-64
2021/09/01 04:42:41;;;;;;;14.77;7.53;;;;;;;11.19;55.97;96525.09;5006991;28;20037;-63
2021/09/01 04:45:07;;;;;;;11.27;6.50;;;;;;;11.45;54.78;96523.38;5007592;28;20033;-63
2021/09/01 04:47:33;;;;;;;12.85;6.55;;;;;;;11.02;55.96;96524.19;5006970;28;20034;-63
2021/09/01 04:49:58;;;;;;;13.48;6.53;;;;;;;11.16;55.65;96521.94;5006976;28;20046;-63
2021/09/01 04:52:23;;;;;;;14.38;6.97;;;;;;;11.01;56.05;96517.16;5007785;28;20080;-63
2021/09/01 04:54:49;;;;;;;13.60;6.88;;;;;;;11.23;55.47;96520.31;5006963;28;20045;-63
2021/09/01 04:57:14;;;;;;;11.52;6.60;;;;;;;11.51;54.16;96522.75;5007175;28;20040;-63
2021/09/01 04:59:40;;;;;;;13.77;6.97;;;;;;;11.24;55.10;96532.63;5007025;28;20034;-63
2021/09/01 05:02:05;;;;;;;10.23;6.53;;;;;;;11.17;55.35;96531.59;5005903;28;20030;-63
2021/09/01 05:04:31;;;;;;;11.73;6.78;;;;;;;11.00;55.96;96534.16;5007310;28;20034;-63
2021/09/01 05:06:56;;;;;;;11.32;7.03;;;;;;;11.24;55.34;96530.81;5006967;28;20450;-63
2021/09/01 05:09:22;;;;;;;9.95;6.20;;;;;;;11.69;53.95;96532.47;5006847;28;20155;-63
2021/09/01 05:11:47;;;;;;;11.45;7.00;;;;;;;11.71;53.41;96528.63;5007491;28;20054;-63
2021/09/01 05:14:13;;;;;;;13.00;6.53;;;;;;;11.67;53.47;96531.78;5001733;28;20034;-63
2021/09/01 05:16:38;;;;;;;13.60;7.32;;;;;;;11.40;54.44;96537.22;5011164;28;20030;-63
2021/09/01 05:19:05;;;;;;;13.02;6.88;;;;;;;11.43;54.63;96539.56;5010507;28;20038;-63
2021/09/01 05:21:31;;;;;;;13.55;7.07;;;;;;;11.38;55.07;96542.69;5004605;28;20495;-63
2021/09/01 05:23:56;;;;;;;12.60;7.00;;;;;;;11.47;54.76;96542.72;5009938;28;20029;-63
2021/09/01 05:26:23;;;;;;;13.73;6.65;;;;;;;11.37;55.05;96551.69;5008942;28;20096;-63
2021/09/01 05:28:49;;;;;;;11.25;6.63;;;;;;;11.56;54.44;96548.94;5008857;28;20419;-63
2021/09/01 05:31:14;;;;;;;12.98;7.10;;;;;;;11.57;54.64;96554.09;5010418;28;20103;-64
2021/09/01 05:33:43;;;;;;;13.43;6.82;;;;;;;11.25;55.28;96553.78;5008946;28;20120;-63
2021/09/01 05:36:09;;;;;;;11.35;6.60;;;;;;;11.06;56.54;96564.66;5010616;28;20033;-63
2021/09/01 05:38:34;;;;;;;11.68;6.38;;;;;;;10.82;57.58;96564.38;5010184;28;20391;-63
2021/09/01 05:41:00;;;;;;;12.05;7.00;;;;;;;10.71;58.10;96564.63;5010400;28;20565;-63
2021/09/01 05:43:26;;;;;;;16.35;9.88;;;;;;;10.69;58.11;96567.44;5009815;28;20034;-64
2021/09/01 05:45:51;;;;;;;25.48;17.33;;;;;;;10.60;58.62;96561.22;5009977;28;20757;-63
2021/09/01 05:48:20;;;;;;;19.00;12.52;;;;;;;10.74;58.27;96565.13;5009699;28;20084;-63
2021/09/01 05:50:49;;;;;;;14.73;9.13;;;;;;;10.55;58.72;96565.31;5007507;28;20056;-63
2021/09/01 05:53:15;;;;;;;15.15;8.48;;;;;;;10.42;58.88;96560.38;5009210;28;20026;-63
2021/09/01 05:55:42;;;;;;;13.90;8.02;;;;;;;10.43;59.23;96556.72;5010275;28;20053;-63
2021/09/01 05:58:11;;;;;;;14.05;8.23;;;;;;;10.19;60.09;96550.22;4986921;28;20089;-63
2021/09/01 06:00:36;;;;;;;13.10;6.75;;;;;;;10.04;60.37;96550.72;5008890;28;20022;-63
2021/09/01 06:03:06;;;;;;;15.60;7.78;;;;;;;9.91;61.32;96548.44;5003294;28;20529;-63
2021/09/01 06:05:32;;;;;;;16.33;7.85;;;;;;;9.76;61.70;96539.31;5007010;28;20479;-63
2021/09/01 06:07:59;;;;;;;13.63;7.55;;;;;;;9.44;62.19;96544.09;5002089;28;20599;-63
2021/09/01 06:10:29;;;;;;;13.80;8.27;;;;;;;9.43;62.74;96545.09;5004433;28;20045;-63
2021/09/01 06:12:56;;;;;;;12.98;8.15;;;;;;;9.38;63.21;96537.56;4998211;28;20066;-64
2021/09/01 06:15:22;;;;;;;21.27;9.35;;;;;;;9.45;62.90;96543.94;5003157;28;20049;-64
2021/09/01 06:17:47;;;;;;;16.98;9.55;;;;;;;9.54;62.65;96544.88;5004549;28;20041;-63
2021/09/01 06:20:13;;;;;;;20.13;9.48;;;;;;;9.25;63.05;96542.38;5004412;28;20021;-63
2021/09/01 06:22:38;;;;;;;22.42;11.30;;;;;;;9.33;62.59;96540.66;5002433;28;20515;-63
2021/09/01 06:25:04;;;;;;;17.15;8.13;;;;;;;9.38;62.40;96547.38;5003039;28;20033;-64
2021/09/01 06:27:30;;;;;;;15.25;9.63;;;;;;;9.63;62.72;96544.97;5001811;28;20384;-63
2021/09/01 06:29:55;;;;;;;10.95;7.05;;;;;;;10.24;60.56;96545.28;5002028;28;20034;-63
2021/09/01 06:32:21;;;;;;;14.57;7.45;;;;;;;10.56;59.36;96538.53;5002696;28;20137;-63
2021/09/01 06:34:46;;;;;;;14.07;6.60;;;;;;;10.54;59.75;96551.16;5002515;28;20045;-63
2021/09/01 06:37:11;;;;;;;17.10;7.13;;;;;;;10.43;60.62;96543.41;5002572;28;20042;-63
2021/09/01 06:39:37;;;;;;;17.98;7.50;;;;;;;10.33;60.50;96552.34;5001223;28;20089;-63
2021/09/01 06:42:03;;;;;;;14.07;6.97;;;;;;;10.30;59.69;96547.31;5002805;28;20034;-63
2021/09/01 06:44:28;;;;;;;13.70;7.72;;;;;;;10.64;58.76;96542.25;5001903;28;20073;-63
2021/09/01 06:46:54;;;;;;;12.45;6.05;;;;;;;10.49;58.02;96546.31;5002637;28;20041;-63
2021/09/01 06:49:19;;;;;;;14.13;6.78;;;;;;;10.36;58.92;96548.53;5001476;28;20042;-62
2021/09/01 06:51:45;;;;;;;14.73;6.72;;;;;;;10.82;58.03;96544.88;5003132;28;20395;-64
2021/09/01 06:54:10;;;;;;;16.75;6.50;;;;;;;11.11;57.10;96543.72;5002609;28;20044;-63
2021/09/01 06:56:35;;;;;;;14.10;6.75;;;;;;;11.30;56.77;96548.00;5001740;28;20322;-64
2021/09/01 06:59:01;;;;;;;14.82;6.53;;;;;;;11.57;54.75;96545.25;5001853;28;20037;-63
2021/09/01 07:01:26;;;;;;;8.90;5.60;;;;;;;11.59;53.26;96544.09;5001863;28;20060;-64
2021/09/01 07:03:54;;;;;;;12.90;5.70;;;;;;;11.63;52.58;96548.09;4996922;28;20037;-64
2021/09/01 07:06:20;;;;;;;10.37;5.83;;;;;;;11.83;53.14;96550.50;5002586;28;20099;-64
2021/09/01 07:08:46;;;;;;;11.10;5.57;;;;;;;12.04;50.93;96543.88;5004304;28;20092;-64
2021/09/01 07:11:11;;;;;;;10.88;5.30;;;;;;;11.96;53.00;96544.69;5003495;28;20046;-63
2021/09/01 07:13:37;;;;;;;11.15;5.45;;;;;;;11.98;52.14;96545.38;4997412;28;20054;-63
2021/09/01 07:16:03;;;;;;;13.93;7.82;;;;;;;12.06;53.06;96557.03;5004630;28;20113;-63
2021/09/01 07:18:28;;;;;;;9.25;5.43;;;;;;;12.50;50.33;96559.44;5002776;28;20034;-63
2021/09/01 07:20:53;;;;;;;10.35;5.20;;;;;;;12.74;50.59;96559.59;5004436;28;20403;-63
2021/09/01 07:23:19;;;;;;;11.05;5.50;;;;;;;12.69;49.56;96556.59;5004155;28;20487;-64
2021/09/01 07:25:44;;;;;;;10.18;5.28;;;;;;;12.74;50.80;96568.44;5003452;28;20037;-63
2021/09/01 07:28:10;;;;;;;11.45;4.97;;;;;;;12.70;48.03;96579.63;5004173;28;20490;-63
2021/09/01 07:30:35;;;;;;;12.00;5.38;;;;;;;12.61;51.15;96573.47;5002740;28;20050;-63
2021/09/01 07:33:01;;;;;;;9.75;5.70;;;;;;;12.45;49.34;96583.16;5003961;28;20033;-63
2021/09/01 07:35:26;;;;;;;13.02;6.20;;;;;;;12.63;49.63;96582.16;5003120;28;20337;-63
2021/09/01 07:37:52;;;;;;;12.02;5.78;;;;;;;12.98;49.15;96577.44;5002530;28;20049;-63
2021/09/01 07:40:18;;;;;;;12.27;5.35;;;;;;;13.00;47.69;96582.66;5004004;28;20086;-63
2021/09/01 07:42:44;;;;;;;9.55;5.72;;;;;;;13.01;48.46;96578.97;5003642;28;20768;-63
2021/09/01 07:45:10;;;;;;;10.55;5.25;;;;;;;12.96;49.97;96591.97;5004104;28;20026;-63
2021/09/01 07:47:35;;;;;;;13.38;5.43;;;;;;;13.25;48.62;96587.94;5000165;28;20441;-63
2021/09/01 07:50:01;;;;;;;11.30;5.25;;;;;;;12.59;49.32;96603.03;5003433;28;20042;-63
2021/09/01 07:52:26;;;;;;;9.30;4.72;;;;;;;13.67;46.83;96592.13;5001337;28;20029;-63
2021/09/01 07:54:52;;;;;;;8.65;4.95;;;;;;;14.07;46.73;96602.00;5000144;28;20038;-63
2021/09/01 07:57:17;;;;;;;10.45;5.53;;;;;;;13.88;45.52;96608.59;5000932;28;20034;-63
2021/09/01 07:59:43;;;;;;;11.82;6.03;;;;;;;13.63;47.26;96604.19;5000523;28;20714;-63
2021/09/01 08:02:08;;;;;;;9.15;4.00;;;;;;;14.06;45.63;96605.69;5000651;28;20041;-63
2021/09/01 08:04:33;;;;;;;13.75;4.43;;;;;;;14.16;45.03;96610.81;4998893;28;20900;-63
2021/09/01 08:06:59;;;;;;;9.23;4.68;;;;;;;14.48;45.11;96605.44;5000403;28;20037;-63
2021/09/01 08:09:24;;;;;;;9.07;4.18;;;;;;;14.42;43.82;96610.47;4998439;28;20050;-63
2021/09/01 08:11:50;;;;;;;6.53;4.00;;;;;;;14.09;45.06;96616.06;5002699;28;20058;-64
2021/09/01 08:14:15;;;;;;;7.93;4.40;;;;;;;13.80;44.47;96620.16;5003238;28;20053;-63
2021/09/01 08:16:41;;;;;;;8.70;4.28;;;;;;;14.01;43.86;96616.09;5002422;28;20038;-63
2021/09/01 08:19:06;;;;;;;8.38;4.20;;;;;;;13.24;45.53;96619.19;5002717;28;20132;-63
2021/09/01 08:21:31;;;;;;;8.13;4.43;;;;;;;13.87;44.92;96620.31;5000604;28;20687;-63
2021/09/01 08:23:57;;;;;;;8.63;3.72;;;;;;;13.79;43.44;96619.34;5002899;28;20463;-63
2021/09/01 08:26:22;;;;;;;6.82;4.03;;;;;;;13.79;44.16;96622.03;5002550;28;20038;-63
2021/09/01 08:28:49;;;;;;;8.52;4.25;;;;;;;13.94;44.14;96624.81;5003017;28;20171;-63
2021/09/01 08:31:15;;;;;;;8.00;3.78;;;;;;;13.98;44.49;96625.31;5002978;28;20410;-63
2021/09/01 08:33:40;;;;;;;6.38;3.78;;;;;;;13.96;44.53;96627.34;5001598;28;20038;-63
2021/09/01 08:36:06;;;;;;;6.80;3.85;;;;;;;14.31;43.38;96624.31;5000418;28;20264;-63
2021/09/01 08:38:31;;;;;;;7.57;4.03;;;;;;;14.74;41.83;96631.88;5000020;28;20403;-63
2021/09/01 08:40:56;;;;;;;7.95;3.90;;;;;;;14.88;41.73;96638.31;5002985;28;20030;-63
2021/09/01 08:43:22;;;;;;;8.13;4.50;;;;;;;14.79;42.99;96636.72;5002440;28;20385;-63
2021/09/01 08:45:48;;;;;;;8.77;3.75;;;;;;;14.46;43.18;96641.25;5002375;28;20030;-62
2021/09/01 08:48:14;;;;;;;8.15;3.63;;;;;;;14.34;43.67;96646.19;5002883;28;20062;-63
2021/09/01 08:50:39;;;;;;;6.88;3.67;;;;;;;14.50;43.21;96644.44;5003453;28;20050;-63
2021/09/01 08:53:05;;;;;;;8.27;3.80;;;;;;;14.70;42.48;96643.94;5006357;28;20398;-63
2021/09/01 08:55:30;;;;;;;7.97;3.97;;;;;;;14.87;43.15;96643.84;5006638;28;20493;-63
2021/09/01 08:57:56;;;;;;;8.50;4.03;;;;;;;14.64;42.48;96642.81;5005876;28;20049;-63
2021/09/01 09:00:21;;;;;;;9.20;3.55;;;;;;;14.65;42.82;96641.81;5006316;28;20034;-62
2021/09/01 09:02:57;;;;;;;8.98;4.38;;;;;;;14.68;43.07;96644.13;5000470;28;20045;-62
2021/09/01 09:05:33;;;;;;;8.57;4.88;;;;;;;15.02;42.39;96646.59;5004545;28;20127;-62
2021/09/01 09:07:59;;;;;;;6.90;3.33;;;;;;;15.37;41.44;96646.91;5006355;28;20487;-63
2021/09/01 09:10:37;;;;;;;8.57;3.85;;;;;;;15.13;42.45;96653.34;5007114;28;20616;-62
2021/09/01 09:13:24;;;;;;;7.88;4.70;;;;;;;15.11;42.56;96653.53;5000336;28;20118;-62
2021/09/01 09:16:12;;;;;;;9.77;3.70;;;;;;;15.00;41.82;96654.81;5006621;28;20110;-62
2021/09/01 09:18:38;;;;;;;8.55;3.90;;;;;;;15.44;41.31;96652.38;5003961;28;20128;-63
2021/09/01 09:21:16;;;;;;;9.10;4.13;;;;;;;15.62;39.84;96652.03;5006659;28;20410;-62
2021/09/01 09:23:43;;;;;;;6.95;3.70;;;;;;;15.85;40.85;96656.47;5002977;28;20069;-68
2021/09/01 09:26:22;;;;;;;6.88;3.92;;;;;;;15.51;41.50;96655.16;5003767;28;20037;-63
2021/09/01 09:29:06;;;;;;;7.55;4.10;;;;;;;15.81;40.49;96649.81;5005108;28;20029;-62
2021/09/01 09:31:32;;;;;;;10.13;4.35;;;;;;;15.24;40.26;96656.41;5003600;28;20132;-63
2021/09/01 09:34:27;;;;;;;9.18;4.90;;;;;;;15.05;42.38;96651.56;5004015;28;20104;-62
2021/09/01 09:37:19;;;;;;;10.57;5.85;;;;;;;15.33;40.37;96645.63;5000688;28;20069;-63
2021/09/01 09:39:51;;;;;;;13.70;7.32;;;;;;;15.53;39.68;96647.75;5004747;28;20034;-64
2021/09/01 09:42:33;;;;;;;10.38;4.75;;;;;;;15.04;40.80;96656.13;5003003;28;20140;-62
2021/09/01 09:45:00;;;;;;;7.95;3.90;;;;;;;15.90;39.01;96653.25;5003935;28;20040;-62
2021/09/01 09:47:44;;;;;;;11.63;6.30;;;;;;;16.04;38.81;96648.88;5004797;28;20037;-62
2021/09/01 09:50:10;;;;;;;9.45;4.47;;;;;;;16.03;39.25;96652.56;5005894;28;20507;-62
2021/09/01 09:52:36;;;;;;;13.77;8.18;;;;;;;16.20;39.76;96653.16;5006416;28;20033;-63
2021/09/01 09:55:15;;;;;;;7.18;3.65;;;;;;;16.74;37.33;96653.78;5005536;28;20034;-63
2021/09/01 09:57:51;;;;;;;7.10;3.42;;;;;;;16.71;37.96;96654.16;5004817;28;20046;-63
2021/09/01 10:00:17;;;;;;;10.07;6.05;;;;;;;16.38;38.76;96660.84;5006216;28;20053;-64
2021/09/01 10:02:43;;;;;;;5.93;3.42;;;;;;;16.30;39.83;96659.09;4993849;28;20410;-64
2021/09/01 10:05:12;;;;;;;8.52;4.25;;;;;;;14.77;41.83;96655.66;4998837;28;20030;-63
2021/09/01 10:07:38;;;;;;;7.75;4.25;;;;;;;15.23;40.42;96665.47;5000717;28;20053;-62
2021/09/01 10:10:04;;;;;;;8.38;4.03;;;;;;;15.97;39.92;96656.81;5005196;28;20049;-61
2021/09/01 10:12:29;;;;;;;6.35;3.85;;;;;;;15.55;42.26;96654.59;4999487;28;20065;-62
2021/09/01 10:14:56;;;;;;;10.35;4.20;;;;;;;15.56;41.03;96650.09;5004164;28;20042;-62
2021/09/01 10:17:21;;;;;;;7.88;3.97;;;;;;;14.95;40.63;96655.34;4984551;28;20593;-63
2021/09/01 10:19:47;;;;;;;8.88;4.85;;;;;;;15.44;40.74;96642.47;5000343;28;20041;-63
2021/09/01 10:22:12;;;;;;;8.65;3.92;;;;;;;14.89;42.53;96650.69;4984610;28;20316;-63
2021/09/01 10:24:39;;;;;;;8.43;3.88;;;;;;;15.04;41.31;96644.53;5003292;28;20034;-63
2021/09/01 10:27:08;;;;;;;10.27;5.43;;;;;;;14.81;42.15;96640.03;4999408;28;20038;-63
2021/09/01 10:29:47;;;;;;;8.85;3.83;;;;;;;15.57;39.20;96639.16;5003009;28;20107;-63
2021/09/01 10:32:18;;;;;;;11.93;5.00;;;;;;;15.48;39.96;96634.88;5002384;28;20050;-63
2021/09/01 10:34:44;;;;;;;9.15;3.90;;;;;;;15.52;39.17;96636.19;5002365;28;20341;-63
2021/09/01 10:37:09;;;;;;;8.13;3.83;;;;;;;16.00;38.09;96633.13;5002468;28;20056;-64
2021/09/01 10:39:36;;;;;;;8.38;3.75;;;;;;;15.97;38.73;96629.97;5002348;28;20045;-64
2021/09/01 10:42:37;;;;;;;7.73;4.23;;;;;;;16.16;37.46;96636.63;5002316;28;20044;-63
2021/09/01 10:45:04;;;;;;;8.63;4.10;;;;;;;16.55;36.82;96631.06;4998844;28;20034;-63
2021/09/01 10:47:49;;;;;;;7.40;4.00;;;;;;;16.91;36.51;96632.81;5001513;28;20041;-64
2021/09/01 10:50:15;;;;;;;9.80;4.10;;;;;;;16.98;36.56;96636.41;5002399;28;20117;-63
2021/09/01 10:53:07;;;;;;;8.93;4.13;;;;;;;17.44;36.94;96626.19;5002147;28;20086;-63
2021/09/01 10:55:33;;;;;;;9.68;5.13;;;;;;;16.93;36.68;96635.31;4997362;28;20744;-63
2021/09/01 10:58:20;;;;;;;11.10;5.67;;;;;;;17.54;36.03;96636.59;4999585;28;20114;-63
2021/09/01 11:00:53;;;;;;;8.53;4.00;;;;;;;17.44;35.75;96631.56;4999988;28;20086;-63
2021/09/01 11:03:36;;;;;;;11.70;5.47;;;;;;;17.46;36.48;96634.91;5000488;28;20197;-63
2021/09/01 11:06:16;;;;;;;12.68;6.85;;;;;;;17.84;35.95;96630.16;4995467;28;20314;-63
2021/09/01 11:09:08;;;;;;;13.45;7.53;;;;;;;18.35;35.54;96633.47;4998704;28;20026;-63
2021/09/01 11:11:59;;;;;;;17.67;10.40;;;;;;;18.36;34.61;96638.66;5000195;28;20052;-63
2021/09/01 11:14:43;;;;;;;8.05;4.30;;;;;;;18.43;33.02;96633.28;4995381;28;20041;-64
2021/09/01 11:17:17;;;;;;;15.98;9.23;;;;;;;18.55;34.82;96631.66;4998990;28;20638;-63
2021/09/01 11:19:44;;;;;;;20.52;12.38;;;;;;;18.75;34.18;96630.88;5001547;28;20810;-63
2021/09/01 11:22:17;;;;;;;9.23;4.23;;;;;;;19.05;32.41;96625.09;5001843;28;20072;-63
2021/09/01 11:24:48;;;;;;;9.27;4.03;;;;;;;19.08;32.05;96630.03;5000716;28;20332;-63
2021/09/01 11:27:15;;;;;;;14.30;8.00;;;;;;;18.91;33.24;96623.41;4999980;28;20042;-63